Latest Weather Observations for Miles

IDQ60801

Issued at 1:32 pm EST Wednesday 28 June 2017 (issued every 30 minutes, with the page automatically refreshed every 10 minutes)

About weather observations | Map of weather stations | Latest weather observations for QLD | Other Formats
Station Details ID: 042112 Name: MILES CONSTANCE STREET Lat: -26.66 Lon: 150.18 Height: 304.8 m
Data from the previous 72 hours. | See also: Recent months at Miles
Date/Time
EST
Temp
°C
App
Temp
°C
Dew
Point
°C
Rel
Hum
%
Delta-T
°C
Wind Press
QNH
hPa
Press
MSL
hPa
Rain since
9am
mm
Dir  Spd
km/h
Gust
km/h
Spd
kts
Gust
kts
28/01:30pm 23.1 22.5 12.3 50 6.2 N 7 15 4 8 1021.8 - 0.0
28/01:00pm 22.5 22.6 12.6 53 5.7 N 4 9 2 5 1022.2 - 0.0
28/12:30pm 21.7 22.4 13.3 59 4.9 WSW 2 6 1 3 1022.6 - 0.0
28/12:00pm 21.5 21.4 13.2 59 4.8 NE 6 11 3 6 1023.3 1023.3 0.0
28/11:30am 21.0 20.2 13.0 60 4.6 N 9 15 5 8 1024.0 - 0.0
28/11:00am 21.2 20.9 13.2 60 4.6 N 7 13 4 7 1024.8 - 0.0
28/10:30am 19.6 18.9 13.3 67 3.6 NNE 9 15 5 8 1025.1 - 0.0
28/10:00am 18.4 16.6 13.3 72 2.9 NNE 15 24 8 13 1025.2 - 0.0
28/09:30am 17.8 16.7 13.0 73 2.7 N 11 17 6 9 1025.3 - 0.0
28/09:00am 16.9 16.0 12.6 76 2.4 NNE 9 13 5 7 1025.2 1025.2 0.0
28/08:30am 14.9 14.4 12.2 84 1.5 NNE 6 9 3 5 1025.1 - 0.0
28/08:00am 13.7 13.1 11.7 88 1.1 NNE 6 9 3 5 1024.9 - 0.0
28/07:30am 12.3 12.7 11.4 94 0.5 CALM 0 0 0 0 1024.7 - 0.0
28/07:00am 12.0 12.4 11.1 94 0.5 CALM 0 0 0 0 1024.2 - 0.0
28/06:30am 12.0 11.0 11.1 94 0.5 N 7 9 4 5 1023.6 - 0.0
28/06:00am 11.8 10.7 10.5 92 0.7 N 7 9 4 5 1023.3 1023.3 0.0
28/05:30am 12.0 11.1 10.7 92 0.7 N 6 7 3 4 1023.5 - 0.0
28/05:00am 12.4 11.6 10.9 90 0.8 N 6 7 3 4 1023.1 - 0.0
28/04:30am 13.4 12.1 11.2 86 1.2 N 9 13 5 7 1022.9 - 0.0
28/04:00am 13.5 12.5 10.9 84 1.4 N 7 9 4 5 1023.0 - 0.0
28/03:30am 14.1 12.7 10.9 81 1.7 N 9 15 5 8 1023.0 - 0.0
28/03:00am 14.5 13.1 11.0 79 1.9 N 9 15 5 8 1023.1 1023.1 0.0
28/02:30am 14.6 13.2 10.9 78 2.0 N 9 13 5 7 1023.2 - 0.0
28/02:00am 14.4 13.4 11.0 80 1.8 N 7 9 4 5 1023.3 - 0.0
28/01:30am 15.1 14.0 10.8 75 2.3 N 7 11 4 6 1023.4 - 0.0
28/01:00am 15.2 13.7 10.7 74 2.4 N 9 13 5 7 1023.4 - 0.0
28/12:30am 15.3 13.8 10.4 72 2.6 N 9 13 5 7 1023.3 - 0.0
28/12:00am 15.0 13.4 10.3 73 2.5 N 9 11 5 6 1023.3 1023.3 0.0
 
Date/Time
EST
Temp
°C
App
Temp
°C
Dew
Point
°C
Rel
Hum
%
Delta-T
°C
Wind Press
QNH
hPa
Press
MSL
hPa
Rain since
9am
mm
Dir  Spd
km/h
Gust
km/h
Spd
kts
Gust
kts
27/11:30pm 14.9 13.6 10.0 72 2.6 N 7 11 4 6 1023.4 - 0.0
27/11:00pm 14.8 13.4 9.4 70 2.8 N 7 11 4 6 1023.4 - 0.0
27/10:30pm 15.3 13.5 9.4 68 3.1 N 9 13 5 7 1023.3 - 0.0
27/10:00pm 14.3 13.1 9.5 73 2.5 N 6 7 3 4 1023.6 - 0.0
27/09:30pm 14.6 13.4 9.4 71 2.7 N 6 7 3 4 1023.6 - 0.0
27/09:00pm 16.0 14.6 9.5 65 3.4 N 7 9 4 5 1023.4 1023.4 0.0
27/08:30pm 17.3 15.4 8.9 57 4.4 N 9 13 5 7 1023.2 - 0.0
27/08:00pm 17.7 15.3 8.7 55 4.7 N 11 17 6 9 1023.0 - 0.0
27/07:30pm 15.9 14.2 8.5 61 3.8 N 7 9 4 5 1022.8 - 0.0
27/07:00pm 16.1 14.6 9.0 63 3.7 N 7 9 4 5 1022.6 - 0.0
27/06:30pm 17.3 15.9 8.9 57 4.4 N 6 9 3 5 1022.2 - 0.0
27/06:00pm 18.2 17.0 9.6 57 4.6 N 6 7 3 4 1022.1 1022.1 0.0
27/05:30pm 20.0 20.6 11.8 59 4.6 CALM 0 0 0 0 1021.8 - 0.0
27/05:00pm 22.1 21.1 10.3 47 6.5 NNE 6 7 3 4 1021.6 - 0.0
27/04:30pm 23.8 22.3 8.6 38 8.2 N 6 13 3 7 1021.6 - 0.0
27/04:00pm 24.3 22.5 8.1 35 8.7 NNE 7 11 4 6 1021.4 - 0.0
27/03:30pm 25.0 23.0 8.7 35 8.9 NNE 9 13 5 7 1021.4 - 0.0
27/03:00pm 24.9 23.9 10.2 39 8.2 N 6 11 3 6 1021.4 1021.3 0.0
27/02:30pm 25.0 24.5 9.4 37 8.6 SW 2 6 1 3 1021.6 - 0.0
27/02:00pm 24.3 22.7 8.9 37 8.4 NNW 7 15 4 8 1021.8 - 0.0
27/01:30pm 25.4 23.4 8.8 35 9.1 NNE 9 13 5 7 1022.0 - 0.0
27/01:00pm 24.2 22.8 9.5 39 8.1 N 7 17 4 9 1022.5 - 0.0
27/12:30pm 23.4 21.7 10.0 42 7.4 N 9 20 5 11 1022.7 - 0.0
27/12:00pm 24.1 21.9 9.3 39 8.1 NNW 11 17 6 9 1023.2 1023.2 0.0
27/11:30am 23.8 21.7 9.6 40 7.8 N 11 19 6 10 1023.6 - 0.0
27/11:00am 23.1 20.4 8.8 40 7.8 N 13 24 7 13 1024.1 - 0.0
27/10:30am 22.0 19.8 9.5 45 6.8 N 11 20 6 11 1024.4 - 0.0
27/10:00am 20.4 18.0 9.9 51 5.7 N 13 19 7 10 1024.8 - 0.0
27/09:30am 18.8 16.4 9.9 56 4.8 NNE 13 20 7 11 1024.9 - 0.0
27/09:00am 17.4 14.9 9.7 60 4.1 NNE 13 22 7 12 1024.7 1024.7 0.0
27/08:30am 15.9 13.2 9.0 63 3.6 N 13 17 7 9 1024.6 - 0.0
27/08:00am 13.4 11.7 8.2 71 2.6 N 7 11 4 6 1024.1 - 0.0
27/07:30am 11.7 9.7 7.2 74 2.2 N 7 9 4 5 1023.9 - 0.0
27/07:00am 10.8 8.7 6.6 75 2.0 N 7 11 4 6 1023.6 - 0.0
27/06:30am 9.1 6.9 5.1 76 1.8 N 6 7 3 4 1023.4 - 0.0
27/06:00am 8.7 7.7 5.4 80 1.5 CALM 0 0 0 0 1023.2 1023.2 0.0
27/05:30am 8.6 7.4 4.8 77 1.7 CALM 0 0 0 0 1022.9 - 0.0
27/05:00am 8.6 6.1 3.8 72 2.1 N 6 9 3 5 1022.7 - 0.0
27/04:30am 7.9 6.5 3.8 75 1.8 CALM 0 0 0 0 1022.9 - 0.0
27/04:00am 7.2 5.8 3.5 77 1.6 CALM 0 0 0 0 1022.8 - 0.0
27/03:30am 6.8 5.4 3.5 79 1.4 CALM 0 0 0 0 1022.4 - 0.0
27/03:00am 6.3 4.8 3.2 80 1.3 CALM 0 0 0 0 1022.4 1022.4 0.0
27/02:30am 6.3 4.8 3.2 80 1.3 CALM 0 0 0 0 1022.3 - 0.0
27/02:00am 6.4 4.9 3.1 79 1.4 CALM 0 0 0 0 1022.3 - 0.0
27/01:30am 6.7 5.3 3.4 79 1.4 CALM 0 0 0 0 1022.4 - 0.0
27/01:00am 7.3 5.8 3.1 75 1.8 CALM 0 0 0 0 1022.3 - 0.0
27/12:30am 7.4 6.0 3.5 76 1.7 CALM 0 0 0 0 1022.3 - 0.0
27/12:00am 7.5 6.1 3.6 76 1.7 CALM 0 0 0 0 1022.4 1022.4 0.0
 
Date/Time
EST
Temp
°C
App
Temp
°C
Dew
Point
°C
Rel
Hum
%
Delta-T
°C
Wind Press
QNH
hPa
Press
MSL
hPa
Rain since
9am
mm
Dir  Spd
km/h
Gust
km/h
Spd
kts
Gust
kts
26/11:30pm 8.1 6.8 4.0 75 1.8 CALM 0 0 0 0 1022.4 - 0.0
26/11:00pm 8.6 7.2 3.8 72 2.1 CALM 0 0 0 0 1022.4 - 0.0
26/10:30pm 8.7 7.5 4.4 74 1.9 CALM 0 0 0 0 1022.4 - 0.0
26/10:00pm 9.4 8.1 4.0 69 2.4 CALM 0 0 0 0 1022.5 - 0.0
26/09:30pm 10.1 8.9 4.8 69 2.4 CALM 0 0 0 0 1022.3 - 0.0
26/09:00pm 10.8 9.7 5.2 68 2.6 CALM 0 0 0 0 1022.3 1022.3 0.0
26/08:30pm 11.4 10.4 5.4 66 2.8 CALM 0 0 0 0 1022.3 - 0.0
26/08:00pm 12.2 11.4 6.4 67 2.8 CALM 0 0 0 0 1022.1 - 0.0
26/07:30pm 13.4 12.7 7.1 65 3.1 CALM 0 0 0 0 1021.9 - 0.0
26/07:00pm 14.6 14.2 8.1 65 3.3 CALM 0 0 0 0 1021.8 - 0.0
26/06:30pm 16.2 15.6 7.5 56 4.4 CALM 0 0 0 0 1021.5 - 0.0
26/06:00pm 18.2 17.2 7.5 49 5.5 SW 2 7 1 4 1020.9 1020.8 0.0
26/05:30pm 20.0 19.3 6.9 42 6.7 CALM 0 0 0 0 1020.4 - 0.0
26/05:00pm 22.0 21.1 6.2 36 8.1 CALM 0 0 0 0 1020.1 - 0.0
26/04:30pm 23.8 21.3 3.9 27 9.9 W 6 11 3 6 1019.9 - 0.0
26/04:00pm 24.9 22.1 2.9 24 10.8 NW 7 11 4 6 1019.9 - 0.0
26/03:30pm 25.3 21.9 1.6 21 11.4 SW 9 13 5 7 1019.8 - 0.0
26/03:00pm 25.5 21.7 1.7 21 11.5 SW 11 17 6 9 1019.7 1019.7 0.0
26/02:30pm 26.1 23.6 3.9 24 11.2 W 6 11 3 6 1019.7 - 0.0
26/02:00pm 26.3 24.6 3.9 23 11.3 W 2 9 1 5 1019.8 - 0.0
26/01:30pm 25.9 23.2 2.8 22 11.4 SW 6 17 3 9 1020.0 - 0.0
26/01:00pm 26.0 23.8 5.3 26 10.7 N 6 11 3 6 1020.2 - 0.0
26/12:30pm 25.4 23.0 5.1 27 10.4 N 7 17 4 9 1020.5 - 0.0
26/12:00pm 25.2 22.5 5.7 28 10.1 N 9 15 5 8 1021.1 1021.0 0.0
26/11:30am 24.6 21.8 5.2 28 9.9 N 9 17 5 9 1021.6 - 0.0
26/11:00am 23.4 21.1 5.6 31 9.1 ENE 7 11 4 6 1022.0 - 0.0
26/10:30am 22.1 19.9 5.5 34 8.4 N 6 9 3 5 1022.3 - 0.0
26/10:00am 18.9 16.4 4.7 39 6.9 N 7 9 4 5 1022.4 - 0.0
26/09:30am 16.8 14.0 3.3 40 6.3 N 7 11 4 6 1022.4 - 0.0
26/09:00am 14.4 11.9 3.5 48 5.0 N 6 9 3 5 1022.4 1022.4 0.0
26/08:30am 11.0 8.3 2.5 56 3.7 N 6 9 3 5 1022.2 - 0.0
26/08:00am 7.3 4.4 1.2 65 2.5 N 6 7 3 4 1021.9 - 0.0
26/07:30am 4.7 2.9 1.2 78 1.4 CALM 0 0 0 0 1021.5 - 0.0
26/07:00am 3.0 1.2 1.2 88 0.7 CALM 0 0 0 0 1021.3 - 0.0
26/06:30am 3.2 1.4 1.4 88 0.7 CALM 0 0 0 0 1020.7 - 0.0
26/06:00am 3.3 1.5 1.5 88 0.7 CALM 0 0 0 0 1020.6 1020.6 0.0
26/05:30am 3.5 1.8 2.0 90 0.6 CALM 0 0 0 0 1020.4 - 0.0
26/05:00am 3.8 2.1 1.8 87 0.8 CALM 0 0 0 0 1020.1 - 0.0
26/04:30am 4.1 2.3 1.3 82 1.1 CALM 0 0 0 0 1020.1 - 0.0
26/04:00am 4.3 2.6 1.8 84 1.0 CALM 0 0 0 0 1020.0 - 0.0
26/03:30am 4.5 2.8 2.0 84 1.0 CALM 0 0 0 0 1020.0 - 0.0
26/03:00am 4.8 3.1 2.1 83 1.1 CALM 0 0 0 0 1020.0 1020.0 0.0
26/02:30am 5.1 3.5 2.4 83 1.1 CALM 0 0 0 0 1020.0 - 0.0
26/02:00am 5.5 3.8 1.8 77 1.5 CALM 0 0 0 0 1020.0 - 0.0
26/01:30am 5.4 3.8 2.2 80 1.3 CALM 0 0 0 0 1020.0 - 0.0
26/01:00am 5.8 2.7 1.6 74 1.7 N 7 9 4 5 1020.1 - 0.0
26/12:30am 5.9 4.3 2.5 79 1.4 CALM 0 0 0 0 1020.2 - 0.0
26/12:00am 6.3 4.7 2.5 77 1.6 CALM 0 0 0 0 1020.3 1020.3 0.0
 
Date/Time
EST
Temp
°C
App
Temp
°C
Dew
Point
°C
Rel
Hum
%
Delta-T
°C
Wind Press
QNH
hPa
Press
MSL
hPa
Rain since
9am
mm
Dir  Spd
km/h
Gust
km/h
Spd
kts
Gust
kts
25/11:30pm 6.9 5.2 2.1 71 2.0 CALM 0 0 0 0 1020.2 - 0.0
25/11:00pm 7.1 5.6 3.1 76 1.7 CALM 0 0 0 0 1020.4 - 0.0
25/10:30pm 7.5 6.0 3.1 73 1.9 CALM 0 0 0 0 1020.3 - 0.0
25/10:00pm 8.2 6.8 3.4 72 2.1 CALM 0 0 0 0 1020.1 - 0.0
25/09:30pm 8.6 7.2 3.3 69 2.3 CALM 0 0 0 0 1020.2 - 0.0
25/09:00pm 9.2 7.9 4.0 70 2.3 CALM 0 0 0 0 1020.1 1020.1 0.0
25/08:30pm 10.0 8.8 4.5 68 2.5 CALM 0 0 0 0 1020.0 - 0.0
25/08:00pm 11.2 10.0 4.7 64 3.0 CALM 0 0 0 0 1019.7 - 0.0
25/07:30pm 12.1 11.2 6.0 66 2.9 CALM 0 0 0 0 1019.7 - 0.0
25/07:00pm 14.1 13.2 6.0 58 3.9 CALM 0 0 0 0 1019.4 - 0.0
25/06:30pm 15.6 14.6 5.5 51 4.9 CALM 0 0 0 0 1019.1 - 0.0
25/06:00pm 17.2 16.3 6.1 48 5.5 CALM 0 0 0 0 1018.6 1018.5 0.0
25/05:30pm 19.1 18.0 5.1 39 6.9 CALM 0 0 0 0 1018.1 - 0.0
25/05:00pm 21.8 19.0 2.2 27 9.3 SW 6 9 3 5 1018.0 - 0.0
25/04:30pm 23.1 19.9 0.8 23 10.4 WSW 7 13 4 7 1017.8 - 0.0
25/04:00pm 23.9 20.7 0.6 21 10.9 WSW 7 11 4 6 1017.7 - 0.0
25/03:30pm 24.6 21.0 0.9 21 11.2 WSW 9 13 5 7 1017.7 - 0.0
25/03:00pm 25.0 21.0 0.3 19 11.6 WSW 11 19 6 10 1017.7 1017.6 0.0
25/02:30pm 25.1 21.6 1.2 21 11.4 W 9 15 5 8 1018.0 - 0.0
25/02:00pm 25.5 21.9 0.6 19 11.8 WNW 9 15 5 8 1018.0 - 0.0

Other Formats:

Comma delimited format used in spreadsheet applications
http://www.bom.gov.au/fwo/IDQ60801/IDQ60801.95529.axf

JavaScript Object Notation format (JSON) in row-major order
http://www.bom.gov.au/fwo/IDQ60801/IDQ60801.95529.json